Time;durP1;ratioP1;P1;durP2;ratioP2;P2;SDS_P1;SDS_P2;PMS_P1;PMS_P2;Temp;Humidity;BMP_temperature;BMP_pressure;BME280_temperature;BME280_humidity;BME280_pressure;Samples;Min_cycle;Max_cycle;Signal;HPM_P1;HPM_P2
2023/01/28 00:01:28;;;;;;;2.58;2.38;;;16.80;64.00;;;;;;5065375;28;20075;-11
2023/01/28 00:03:54;;;;;;;2.75;2.55;;;16.70;64.30;;;;;;5062953;28;20055;-12
2023/01/28 00:06:20;;;;;;;3.28;2.80;;;16.70;65.30;;;;;;5062611;28;20056;-12
2023/01/28 00:08:45;;;;;;;2.85;2.28;;;16.70;64.30;;;;;;5065870;28;20608;-12
2023/01/28 00:11:11;;;;;;;2.45;2.30;;;16.70;64.40;;;;;;5065256;28;20041;-14
2023/01/28 00:13:37;;;;;;;2.08;1.88;;;16.60;64.30;;;;;;5062643;28;20032;-14
2023/01/28 00:16:04;;;;;;;2.65;1.85;;;16.60;64.30;;;;;;5064457;28;20063;-12
2023/01/28 00:18:30;;;;;;;2.60;2.40;;;16.60;64.20;;;;;;5058613;28;20127;-12
2023/01/28 00:20:56;;;;;;;2.53;2.28;;;16.60;64.10;;;;;;5065328;28;20040;-12
2023/01/28 00:23:22;;;;;;;2.50;2.30;;;16.60;63.80;;;;;;5061950;28;20052;-12
2023/01/28 00:25:47;;;;;;;2.50;2.30;;;16.60;64.00;;;;;;5064045;28;20043;-12
2023/01/28 00:28:13;;;;;;;2.58;2.38;;;16.60;64.10;;;;;;5062411;28;20037;-17
2023/01/28 00:30:38;;;;;;;2.63;2.05;;;16.70;64.70;;;;;;5066383;28;20037;-13
2023/01/28 00:33:04;;;;;;;2.38;2.28;;;16.70;63.40;;;;;;5065412;28;20052;-12
2023/01/28 00:35:29;;;;;;;2.40;2.20;;;16.70;63.40;;;;;;5068342;28;20040;-12
2023/01/28 00:37:55;;;;;;;2.20;2.00;;;16.70;63.40;;;;;;5067218;28;20491;-34
2023/01/28 00:40:20;;;;;;;2.63;2.42;;;16.70;63.30;;;;;;5067199;28;20044;-12
2023/01/28 00:42:46;;;;;;;2.78;2.58;;;16.60;63.00;;;;;;5069684;28;20052;-29
2023/01/28 00:45:11;;;;;;;2.70;2.50;;;16.70;63.30;;;;;;5066552;28;20042;-12
2023/01/28 00:47:37;;;;;;;1.95;1.80;;;16.70;63.00;;;;;;5067281;28;20465;-11
2023/01/28 00:50:03;;;;;;;2.20;2.00;;;16.80;62.80;;;;;;5067032;28;20051;-14
2023/01/28 00:52:28;;;;;;;2.38;2.20;;;16.80;62.80;;;;;;5068538;28;20075;-16
2023/01/28 00:54:56;;;;;;;2.10;2.00;;;16.70;63.00;;;;;;5065880;28;20048;-11
2023/01/28 00:57:21;;;;;;;2.28;2.10;;;16.80;62.50;;;;;;5068406;28;20514;-15
2023/01/28 00:59:47;;;;;;;2.08;1.88;;;16.80;62.20;;;;;;5068750;28;20071;-12
2023/01/28 01:02:12;;;;;;;2.15;2.00;;;16.80;63.50;;;;;;5068230;28;20033;-15
2023/01/28 01:04:39;;;;;;;1.95;1.85;;;16.70;62.80;;;;;;5068972;28;20053;-19
2023/01/28 01:07:04;;;;;;;2.30;1.90;;;16.70;63.00;;;;;;5067368;28;20037;-12
2023/01/28 01:09:30;;;;;;;1.92;1.75;;;16.60;62.80;;;;;;5065807;28;20049;-12
2023/01/28 01:11:55;;;;;;;2.15;1.70;;;16.50;63.20;;;;;;5068216;28;20106;-13
2023/01/28 01:14:21;;;;;;;2.60;2.10;;;16.60;63.60;;;;;;5065570;28;20060;-11
2023/01/28 01:16:47;;;;;;;3.17;2.00;;;16.60;63.00;;;;;;5064313;28;20049;-12
2023/01/28 01:19:12;;;;;;;1.90;1.80;;;16.50;62.90;;;;;;5067140;28;20043;-16
2023/01/28 01:21:38;;;;;;;2.15;2.05;;;16.60;62.90;;;;;;5066139;28;20049;-20
2023/01/28 01:24:04;;;;;;;1.80;1.70;;;16.60;62.60;;;;;;5064986;28;20040;-12
2023/01/28 01:26:29;;;;;;;1.70;1.60;;;16.50;62.80;;;;;;5067444;28;20089;-12
2023/01/28 01:28:55;;;;;;;1.65;1.55;;;16.60;62.80;;;;;;5063900;28;20152;-11
2023/01/28 01:31:21;;;;;;;2.10;1.80;;;16.60;62.80;;;;;;5067558;28;20040;-11
2023/01/28 01:33:47;;;;;;;1.70;1.60;;;16.50;62.80;;;;;;5062553;28;20106;-12
2023/01/28 01:36:13;;;;;;;1.70;1.60;;;16.60;62.60;;;;;;5067493;28;20051;-11
2023/01/28 01:38:39;;;;;;;2.00;1.80;;;16.40;62.70;;;;;;5067894;28;20057;-12
2023/01/28 01:41:05;;;;;;;2.20;1.98;;;16.60;62.70;;;;;;5067215;28;20052;-15
2023/01/28 01:43:57;;;;;;;1.83;1.73;;;16.50;62.50;;;;;;5066742;28;20503;-11
2023/01/28 01:46:37;;;;;;;2.13;1.90;;;16.50;62.70;;;;;;5065475;28;20244;-23
2023/01/28 01:49:15;;;;;;;2.22;1.77;;;16.60;62.70;;;;;;5077627;28;20033;-19
2023/01/28 01:51:40;;;;;;;1.73;1.63;;;16.60;62.30;;;;;;5077786;28;20073;-25
2023/01/28 01:54:06;;;;;;;1.85;1.75;;;16.70;62.20;;;;;;5064987;28;21554;-12
2023/01/28 01:56:34;;;;;;;1.42;1.33;;;16.70;62.20;;;;;;5071758;28;20864;-20
2023/01/28 01:58:59;;;;;;;1.60;1.50;;;16.70;62.10;;;;;;5076429;28;20059;-14
2023/01/28 02:01:26;;;;;;;2.00;1.90;;;16.60;62.10;;;;;;5066070;28;20069;-15
2023/01/28 02:04:12;;;;;;;2.00;1.80;;;16.70;62.10;;;;;;5066737;28;20090;-12
2023/01/28 02:06:37;;;;;;;1.77;1.67;;;16.60;62.10;;;;;;5064172;28;20154;-28
2023/01/28 02:09:20;;;;;;;1.55;1.45;;;16.60;62.20;;;;;;5070645;28;20534;-12
2023/01/28 02:11:45;;;;;;;1.67;1.58;;;16.60;62.20;;;;;;5084214;28;20055;-22
2023/01/28 02:14:11;;;;;;;1.10;1.10;;;16.60;62.20;;;;;;5050072;28;20044;-19
2023/01/28 02:16:37;;;;;;;1.70;1.60;;;16.60;62.30;;;;;;5052547;28;20072;-17
2023/01/28 02:19:02;;;;;;;1.60;1.50;;;16.50;62.30;;;;;;5059663;28;20510;-12
2023/01/28 02:21:55;;;;;;;1.60;1.50;;;16.50;62.30;;;;;;5066569;28;20039;-24
2023/01/28 02:24:47;;;;;;;1.50;1.40;;;16.50;62.20;;;;;;5064272;28;20051;-20
2023/01/28 02:27:31;;;;;;;1.40;1.30;;;16.50;62.10;;;;;;5043210;28;20033;-15
2023/01/28 02:30:13;;;;;;;1.58;1.48;;;16.50;62.10;;;;;;5062846;28;20545;-13
2023/01/28 02:32:42;;;;;;;1.40;1.30;;;16.50;62.30;;;;;;5058094;28;20037;-14
2023/01/28 02:35:15;;;;;;;1.50;1.40;;;16.50;62.20;;;;;;5041653;28;20057;-23
2023/01/28 02:37:50;;;;;;;1.50;1.40;;;16.40;62.40;;;;;;5044540;28;20045;-16
2023/01/28 02:40:20;;;;;;;1.40;1.30;;;16.40;62.30;;;;;;5051460;28;20049;-12
2023/01/28 02:42:46;;;;;;;1.70;1.60;;;16.40;62.40;;;;;;5060669;28;20041;-20
2023/01/28 02:45:24;;;;;;;1.50;1.40;;;16.40;62.50;;;;;;5065603;28;20033;-32
2023/01/28 02:47:59;;;;;;;1.60;1.00;;;16.50;62.30;;;;;;5063764;28;20499;-12
2023/01/28 02:50:34;;;;;;;1.60;1.50;;;16.50;62.10;;;;;;5062821;28;20106;-26
2023/01/28 02:56:10;;;;;;;1.15;1.15;;;16.50;62.10;;;;;;5071616;28;20060;-12
2023/01/28 02:58:45;;;;;;;1.30;1.20;;;16.40;62.30;;;;;;5055321;28;20575;-13
2023/01/28 03:01:37;;;;;;;1.30;1.20;;;16.50;62.10;;;;;;5042467;28;20610;-15
2023/01/28 03:04:11;;;;;;;1.17;1.17;;;16.40;62.00;;;;;;5058825;28;20041;-19
2023/01/28 03:06:38;;;;;;;1.27;1.27;;;16.50;62.10;;;;;;5066607;28;20048;-12
2023/01/28 03:09:25;;;;;;;1.13;1.13;;;16.30;62.20;;;;;;5054398;28;20051;-24
2023/01/28 03:37:53;;;;;;;1.20;1.10;;;16.30;62.10;;;;;;5043463;28;20069;-20
2023/01/28 03:40:19;;;;;;;1.50;1.40;;;16.40;62.00;;;;;;5039746;28;20420;-16
2023/01/28 03:42:45;;;;;;;1.30;1.20;;;16.50;61.60;;;;;;5041925;28;20045;-20
2023/01/28 03:45:10;;;;;;;1.08;1.00;;;16.50;61.40;;;;;;5059244;28;20537;-24
2023/01/28 03:47:39;;;;;;;1.15;1.08;;;16.50;61.50;;;;;;5053483;28;20033;-19
2023/01/28 03:50:05;;;;;;;0.85;0.85;;;16.40;61.80;;;;;;5049639;28;20068;-11
2023/01/28 03:52:31;;;;;;;1.08;1.08;;;16.40;61.90;;;;;;5053977;28;20057;-18
2023/01/28 03:54:57;;;;;;;0.90;0.90;;;16.30;61.90;;;;;;5044239;28;20052;-18
2023/01/28 03:57:25;;;;;;;1.42;1.33;;;16.40;61.70;;;;;;5043194;28;20056;-12
2023/01/28 03:59:51;;;;;;;1.17;1.17;;;16.30;61.70;;;;;;5045001;28;20123;-13
2023/01/28 04:02:17;;;;;;;1.35;1.25;;;16.40;62.00;;;;;;5044242;28;20126;-18
2023/01/28 04:04:43;;;;;;;0.93;0.93;;;16.30;61.70;;;;;;5053103;28;20096;-12
2023/01/28 04:07:13;;;;;;;0.70;0.70;;;16.40;61.50;;;;;;5069118;28;20151;-23
2023/01/28 04:09:39;;;;;;;1.15;1.00;;;16.40;61.50;;;;;;5059662;28;20440;-12
2023/01/28 04:12:05;;;;;;;0.88;0.77;;;16.30;62.60;;;;;;5067401;28;20514;-12
2023/01/28 04:14:30;;;;;;;0.80;0.80;;;16.30;61.70;;;;;;5049738;28;20061;-11
2023/01/28 04:16:56;;;;;;;1.17;1.17;;;16.30;61.60;;;;;;5049313;28;20079;-11
2023/01/28 04:19:21;;;;;;;0.80;0.80;;;16.40;61.30;;;;;;5055978;28;20043;-12
2023/01/28 04:21:48;;;;;;;0.90;0.90;;;16.30;61.50;;;;;;5047857;28;20551;-20
2023/01/28 04:24:14;;;;;;;1.15;1.15;;;16.30;61.50;;;;;;5044389;28;20052;-13
2023/01/28 04:26:39;;;;;;;0.80;0.80;;;16.30;61.80;;;;;;5053618;28;20127;-13
2023/01/28 04:29:05;;;;;;;0.95;0.95;;;16.30;61.80;;;;;;5049874;28;20124;-15
2023/01/28 04:31:31;;;;;;;0.90;0.90;;;16.30;61.60;;;;;;5048788;28;20045;-21
2023/01/28 04:33:57;;;;;;;1.00;1.00;;;16.30;61.50;;;;;;5051281;28;20474;-16
2023/01/28 04:36:23;;;;;;;0.70;0.70;;;16.30;61.70;;;;;;5058035;28;20041;-15
2023/01/28 04:38:48;;;;;;;0.88;0.88;;;16.20;61.70;;;;;;5045983;28;20037;-15
2023/01/28 04:41:14;;;;;;;1.67;0.90;;;16.30;61.70;;;;;;5046375;28;20036;-34
2023/01/28 04:43:40;;;;;;;1.10;1.00;;;16.20;61.80;;;;;;5053880;28;20443;-20
2023/01/28 04:46:05;;;;;;;0.90;0.90;;;16.20;61.80;;;;;;5053243;28;20049;-22
2023/01/28 04:48:31;;;;;;;0.80;0.80;;;16.30;61.70;;;;;;5056469;28;20033;-12
2023/01/28 04:50:57;;;;;;;0.60;0.60;;;16.40;61.30;;;;;;5058644;28;20071;-22
2023/01/28 04:53:22;;;;;;;0.65;0.65;;;16.30;61.30;;;;;;5048361;28;20041;-16
2023/01/28 04:55:48;;;;;;;0.80;0.80;;;16.30;61.60;;;;;;5047931;28;20069;-13
2023/01/28 04:58:13;;;;;;;0.80;0.80;;;16.30;61.40;;;;;;5063248;28;20040;-14
2023/01/28 05:00:39;;;;;;;0.70;0.70;;;16.20;61.70;;;;;;5050274;28;20053;-14
2023/01/28 05:03:04;;;;;;;1.20;1.10;;;16.20;61.50;;;;;;5048140;28;20047;-12
2023/01/28 05:05:30;;;;;;;1.13;1.13;;;16.20;61.50;;;;;;5044491;28;20037;-16
2023/01/28 05:07:56;;;;;;;1.10;1.10;;;16.00;61.90;;;;;;5055784;28;20421;-29
2023/01/28 05:10:22;;;;;;;0.80;0.80;;;16.20;61.70;;;;;;5053355;28;20518;-11
2023/01/28 05:12:48;;;;;;;0.90;0.90;;;16.30;61.30;;;;;;5055917;28;20041;-21
2023/01/28 05:15:14;;;;;;;0.88;0.88;;;16.20;61.50;;;;;;5047218;28;20045;-14
2023/01/28 05:17:41;;;;;;;0.82;0.82;;;16.00;61.90;;;;;;5043520;28;20466;-19
2023/01/28 05:20:08;;;;;;;0.80;0.80;;;16.20;61.50;;;;;;5046402;28;20116;-12
2023/01/28 05:22:33;;;;;;;0.85;0.85;;;16.10;61.60;;;;;;5046700;28;20037;-13
2023/01/28 05:25:00;;;;;;;1.10;1.00;;;16.20;61.70;;;;;;5044301;28;20052;-31
2023/01/28 05:27:25;;;;;;;0.80;0.80;;;16.30;61.30;;;;;;5051102;28;20040;-21
2023/01/28 05:29:51;;;;;;;0.77;0.77;;;16.20;61.30;;;;;;5064149;28;20037;-12
2023/01/28 05:32:17;;;;;;;0.60;0.60;;;16.10;61.50;;;;;;5062789;28;20086;-17
2023/01/28 05:34:42;;;;;;;0.73;0.73;;;16.10;61.50;;;;;;5047159;28;20042;-19
2023/01/28 05:37:08;;;;;;;0.68;0.68;;;16.20;62.50;;;;;;5046840;28;20046;-22
2023/01/28 05:39:34;;;;;;;0.70;0.70;;;16.20;62.20;;;;;;5064467;28;20045;-11
2023/01/28 05:41:59;;;;;;;0.60;0.60;;;16.10;61.30;;;;;;5056707;28;20044;-11
2023/01/28 05:44:25;;;;;;;0.50;0.50;;;16.00;61.60;;;;;;5042397;28;20392;-12
2023/01/28 05:46:50;;;;;;;0.70;0.70;;;16.00;61.50;;;;;;5050335;28;20048;-11
2023/01/28 05:49:16;;;;;;;0.63;0.63;;;16.10;61.40;;;;;;5067462;28;20044;-11
2023/01/28 05:51:41;;;;;;;0.70;0.70;;;16.10;61.60;;;;;;5066888;28;20132;-11
2023/01/28 05:54:07;;;;;;;0.70;0.70;;;16.00;61.60;;;;;;5052222;28;20393;-12
2023/01/28 05:56:35;;;;;;;0.50;0.50;;;16.10;61.50;;;;;;5059849;28;20585;-12
2023/01/28 05:59:01;;;;;;;0.55;0.52;;;16.10;61.30;;;;;;5065208;28;20499;-12
2023/01/28 06:01:26;;;;;;;0.77;0.77;;;16.00;61.30;;;;;;5048262;28;20458;-13
2023/01/28 06:03:52;;;;;;;0.60;0.60;;;16.00;61.50;;;;;;5045217;28;20041;-20
2023/01/28 06:06:18;;;;;;;0.52;0.52;;;16.00;61.50;;;;;;5046952;28;20047;-20
2023/01/28 06:08:43;;;;;;;0.50;0.50;;;16.00;61.60;;;;;;5055124;28;20045;-14
2023/01/28 06:11:09;;;;;;;0.60;0.60;;;16.10;61.50;;;;;;5051490;28;20041;-12
2023/01/28 06:13:34;;;;;;;0.50;0.50;;;16.10;61.20;;;;;;5062116;28;20503;-18
2023/01/28 06:16:01;;;;;;;0.82;0.82;;;16.10;61.10;;;;;;5060287;28;20049;-22
2023/01/28 06:18:26;;;;;;;0.73;0.63;;;16.00;61.30;;;;;;5045119;28;20059;-15
2023/01/28 06:20:52;;;;;;;0.50;0.50;;;16.10;61.20;;;;;;5045195;28;20065;-14
2023/01/28 06:23:18;;;;;;;0.57;0.57;;;16.10;61.10;;;;;;5060115;28;20036;-25
2023/01/28 06:25:43;;;;;;;0.60;0.60;;;16.10;61.10;;;;;;5046466;28;20091;-21
2023/01/28 06:28:09;;;;;;;0.70;0.70;;;16.10;61.10;;;;;;5036711;28;20091;-13
2023/01/28 06:30:34;;;;;;;0.52;0.52;;;16.20;60.90;;;;;;5046802;28;20029;-14
2023/01/28 06:33:00;;;;;;;0.70;0.70;;;16.00;61.10;;;;;;5048458;28;20170;-13
2023/01/28 06:35:25;;;;;;;0.70;0.70;;;16.00;61.30;;;;;;5053840;28;20433;-14
2023/01/28 06:37:51;;;;;;;0.50;0.50;;;16.00;61.10;;;;;;5043671;28;20049;-20
2023/01/28 06:40:17;;;;;;;0.52;0.52;;;16.00;61.20;;;;;;5052574;28;20240;-15
2023/01/28 06:42:43;;;;;;;0.50;0.50;;;15.90;61.30;;;;;;5058679;28;20060;-20
2023/01/28 06:45:09;;;;;;;0.60;0.60;;;16.00;61.20;;;;;;5064671;28;20048;-12
2023/01/28 06:47:34;;;;;;;0.60;0.60;;;16.00;61.10;;;;;;5045195;28;20448;-13
2023/01/28 06:50:00;;;;;;;0.45;0.45;;;16.00;61.10;;;;;;5045502;28;20091;-12
2023/01/28 06:52:26;;;;;;;0.55;0.55;;;16.00;61.20;;;;;;5063508;28;20113;-13
2023/01/28 06:54:51;;;;;;;0.75;0.75;;;16.00;61.30;;;;;;5057171;28;20072;-17
2023/01/28 06:57:17;;;;;;;1.65;0.57;;;15.90;61.50;;;;;;5058548;28;20041;-13
2023/01/28 06:59:42;;;;;;;0.47;0.40;;;16.00;61.30;;;;;;5065182;28;20041;-13
2023/01/28 07:02:10;;;;;;;0.55;0.55;;;15.90;62.00;;;;;;5051889;28;20424;-13
2023/01/28 07:04:36;;;;;;;0.50;0.50;;;15.90;61.30;;;;;;5048059;28;20533;-15
2023/01/28 07:07:01;;;;;;;0.50;0.50;;;15.90;61.40;;;;;;5047300;28;20045;-12
2023/01/28 07:09:27;;;;;;;0.50;0.50;;;15.90;61.20;;;;;;5052914;28;20396;-17
2023/01/28 07:11:53;;;;;;;1.65;0.68;;;15.90;61.10;;;;;;5056346;28;20523;-13
2023/01/28 07:14:18;;;;;;;0.52;0.52;;;15.90;61.60;;;;;;5065300;28;20439;-16
2023/01/28 07:16:44;;;;;;;0.52;0.52;;;16.00;60.90;;;;;;5049894;28;20083;-16
2023/01/28 07:19:09;;;;;;;0.50;0.50;;;16.00;60.90;;;;;;5044238;28;20040;-13
2023/01/28 07:21:35;;;;;;;0.65;0.50;;;15.90;61.20;;;;;;5053014;28;20061;-18
2023/01/28 07:24:01;;;;;;;0.50;0.50;;;15.90;61.10;;;;;;5045230;28;20048;-19
2023/01/28 07:26:26;;;;;;;0.50;0.50;;;16.00;61.10;;;;;;5042307;28;20048;-15
2023/01/28 07:28:52;;;;;;;0.35;0.35;;;15.80;60.90;;;;;;5054520;28;20044;-12
2023/01/28 07:31:17;;;;;;;0.50;0.50;;;16.00;60.90;;;;;;5050704;28;20044;-13
2023/01/28 07:33:43;;;;;;;0.70;0.70;;;15.90;61.00;;;;;;5045071;28;20041;-13
2023/01/28 07:36:09;;;;;;;0.50;0.50;;;15.80;61.20;;;;;;5045643;28;20513;-11
2023/01/28 07:38:34;;;;;;;0.40;0.40;;;15.90;61.00;;;;;;5040262;28;20426;-14
2023/01/28 07:41:00;;;;;;;0.40;0.40;;;15.90;61.10;;;;;;5048115;28;20072;-12
2023/01/28 07:43:25;;;;;;;0.40;0.40;;;15.80;61.00;;;;;;5053958;28;20047;-11
2023/01/28 07:45:51;;;;;;;0.50;0.50;;;15.90;61.00;;;;;;5061512;28;23088;-22
2023/01/28 07:48:17;;;;;;;0.60;0.60;;;15.90;61.10;;;;;;5068384;28;20041;-25
2023/01/28 07:50:43;;;;;;;0.50;0.50;;;15.90;61.70;;;;;;5064452;28;20052;-10
2023/01/28 07:53:10;;;;;;;0.35;0.32;;;15.90;60.70;;;;;;5048902;28;20040;-10
2023/01/28 07:55:36;;;;;;;0.55;0.55;;;15.90;61.60;;;;;;5059976;28;20056;-10
2023/01/28 07:58:02;;;;;;;0.50;0.50;;;15.70;61.10;;;;;;5044524;28;20041;-11
2023/01/28 08:00:29;;;;;;;0.30;0.30;;;15.80;61.10;;;;;;5046353;28;20060;-12
2023/01/28 08:03:04;;;;;;;0.40;0.40;;;15.80;60.90;;;;;;5052897;28;20037;-11
2023/01/28 08:05:43;;;;;;;0.50;0.50;;;15.80;61.10;;;;;;5046517;28;20102;-10
2023/01/28 08:08:09;;;;;;;0.55;0.40;;;15.90;60.80;;;;;;5062074;28;20036;-11
2023/01/28 08:10:35;;;;;;;0.40;0.40;;;15.90;60.80;;;;;;5055828;28;20040;-12
2023/01/28 08:13:01;;;;;;;0.40;0.40;;;15.90;60.70;;;;;;5064991;28;20053;-13
2023/01/28 08:15:26;;;;;;;0.60;0.60;;;16.00;60.60;;;;;;5065607;28;20062;-11
2023/01/28 08:17:56;;;;;;;0.60;0.60;;;15.80;60.70;;;;;;5046694;28;20137;-14
2023/01/28 08:20:22;;;;;;;0.40;0.40;;;15.80;61.60;;;;;;5047222;28;20063;-10
2023/01/28 08:22:48;;;;;;;1.10;0.50;;;15.80;62.70;;;;;;5045901;28;20068;-10
2023/01/28 08:25:13;;;;;;;0.40;0.40;;;15.70;63.00;;;;;;5045508;28;20075;-11
2023/01/28 08:27:39;;;;;;;0.40;0.40;;;15.80;63.40;;;;;;5064293;28;20056;-10
2023/01/28 08:30:05;;;;;;;0.95;0.55;;;15.70;63.30;;;;;;5054655;28;20075;-12
2023/01/28 08:32:31;;;;;;;0.45;0.45;;;15.80;64.50;;;;;;5062722;28;20083;-11
2023/01/28 08:34:56;;;;;;;0.32;0.32;;;15.70;63.70;;;;;;5067318;28;20759;-12
2023/01/28 08:37:22;;;;;;;0.43;0.43;;;15.70;64.40;;;;;;5059183;28;20057;-10
2023/01/28 08:39:48;;;;;;;0.63;0.40;;;15.80;63.50;;;;;;5065959;28;20098;-11
2023/01/28 08:42:14;;;;;;;0.65;0.65;;;15.80;63.60;;;;;;5055276;28;20052;-11
2023/01/28 08:44:39;;;;;;;0.52;0.52;;;15.90;63.20;;;;;;5048326;28;20037;-11
2023/01/28 08:47:05;;;;;;;0.85;0.50;;;15.90;63.20;;;;;;5060340;28;20079;-19
2023/01/28 08:49:30;;;;;;;0.73;0.73;;;15.90;62.90;;;;;;5055401;28;20049;-11
2023/01/28 08:51:56;;;;;;;2.17;0.50;;;15.90;63.40;;;;;;5055293;28;20109;-11
2023/01/28 08:54:22;;;;;;;1.15;0.70;;;15.70;64.40;;;;;;5051074;28;20418;-10
2023/01/28 08:56:47;;;;;;;0.50;0.50;;;15.70;65.20;;;;;;5046953;28;20101;-10
2023/01/28 08:59:14;;;;;;;2.17;0.50;;;15.60;65.70;;;;;;5053468;28;20636;-17
2023/01/28 09:01:39;;;;;;;1.30;0.80;;;15.50;66.10;;;;;;5046003;28;20078;-20
2023/01/28 09:04:05;;;;;;;2.20;0.75;;;15.60;65.90;;;;;;5044633;28;20064;-11
2023/01/28 09:06:31;;;;;;;0.50;0.50;;;15.80;65.30;;;;;;5047928;28;20068;-11
2023/01/28 09:08:57;;;;;;;1.75;0.77;;;15.80;64.90;;;;;;5036630;28;20508;-11
2023/01/28 09:11:23;;;;;;;1.77;0.60;;;16.00;64.50;;;;;;5045148;28;20044;-12
2023/01/28 09:13:48;;;;;;;2.55;0.73;;;15.90;64.60;;;;;;5036086;28;20822;-11
2023/01/28 09:16:14;;;;;;;1.35;0.73;;;15.90;64.70;;;;;;5034261;28;20068;-11
2023/01/28 09:18:40;;;;;;;2.60;0.98;;;15.80;64.90;;;;;;5035150;28;20045;-10
2023/01/28 09:21:06;;;;;;;0.85;0.85;;;16.00;64.50;;;;;;5034980;28;20055;-11
2023/01/28 09:23:36;;;;;;;2.47;0.70;;;16.00;64.50;;;;;;5035900;28;20048;-13
2023/01/28 09:26:02;;;;;;;2.15;0.80;;;16.00;64.70;;;;;;5037868;28;20066;-10
2023/01/28 09:28:29;;;;;;;0.80;0.80;;;15.90;64.70;;;;;;5039535;28;20044;-11
2023/01/28 09:31:03;;;;;;;0.90;0.70;;;15.90;64.70;;;;;;5058456;28;20044;-10
2023/01/28 09:33:29;;;;;;;2.00;0.70;;;15.80;65.60;;;;;;5049252;28;20057;-23
2023/01/28 09:35:55;;;;;;;1.42;0.65;;;15.90;64.70;;;;;;5045664;28;20063;-12
2023/01/28 09:38:20;;;;;;;1.27;0.60;;;15.90;64.60;;;;;;5044421;28;20415;-11
2023/01/28 09:40:46;;;;;;;1.38;0.70;;;16.00;64.60;;;;;;5053571;28;20044;-11
2023/01/28 09:43:23;;;;;;;1.73;0.90;;;16.00;64.80;;;;;;5045046;28;20499;-21
2023/01/28 09:45:49;;;;;;;0.80;0.80;;;16.00;64.80;;;;;;5045288;28;20051;-13
2023/01/28 09:48:23;;;;;;;1.00;0.90;;;16.10;65.00;;;;;;5041947;28;20132;-11
2023/01/28 09:50:52;;;;;;;0.82;0.82;;;16.20;65.20;;;;;;5027478;28;20037;-11
2023/01/28 09:53:27;;;;;;;0.75;0.60;;;16.20;65.00;;;;;;5045450;28;20048;-14
2023/01/28 09:56:07;;;;;;;0.95;0.90;;;16.30;64.50;;;;;;5044778;28;20041;-12
2023/01/28 09:58:32;;;;;;;0.50;0.50;;;16.30;64.00;;;;;;5058340;28;20080;-16
2023/01/28 10:01:36;;;;;;;0.60;0.60;;;16.30;65.10;;;;;;5046722;28;20065;-11
2023/01/28 10:04:16;;;;;;;0.60;0.60;;;16.20;64.90;;;;;;5050289;28;20056;-11
2023/01/28 10:06:45;;;;;;;1.35;0.68;;;16.40;64.00;;;;;;5064241;28;20056;-11
2023/01/28 10:09:20;;;;;;;1.17;0.52;;;16.30;63.90;;;;;;5052372;28;20041;-11
2023/01/28 10:11:49;;;;;;;1.95;0.70;;;16.30;64.80;;;;;;5060781;28;20040;-12
2023/01/28 10:14:37;;;;;;;1.02;1.00;;;16.20;63.70;;;;;;5051862;28;20036;-10
2023/01/28 10:17:32;;;;;;;0.88;0.70;;;16.20;64.30;;;;;;5053199;28;20515;-15
2023/01/28 10:20:12;;;;;;;0.98;0.50;;;16.30;63.70;;;;;;5060165;28;20474;-12
2023/01/28 10:23:11;;;;;;;0.60;0.60;;;16.30;63.50;;;;;;5046366;28;20520;-11
2023/01/28 10:25:36;;;;;;;2.50;0.70;;;16.20;63.40;;;;;;5072753;28;20500;-11
2023/01/28 10:28:04;;;;;;;1.75;0.80;;;16.20;64.90;;;;;;5045853;28;20125;-11
2023/01/28 10:30:31;;;;;;;1.67;0.70;;;16.20;63.70;;;;;;5044524;28;20044;-10
2023/01/28 10:33:19;;;;;;;1.40;0.50;;;16.10;64.60;;;;;;5053719;28;20052;-10
2023/01/28 10:35:44;;;;;;;2.15;0.50;;;16.20;63.80;;;;;;5043078;28;20048;-12
2023/01/28 10:38:13;;;;;;;1.42;0.70;;;16.20;64.10;;;;;;5044957;28;20717;-12
2023/01/28 10:40:42;;;;;;;0.68;0.68;;;16.30;63.90;;;;;;5055994;28;20044;-10
2023/01/28 10:43:07;;;;;;;0.65;0.65;;;16.30;64.40;;;;;;5055066;28;20037;-13
2023/01/28 10:45:48;;;;;;;1.35;0.90;;;16.30;63.70;;;;;;5041870;28;20047;-11
2023/01/28 10:48:23;;;;;;;1.95;0.77;;;16.30;63.40;;;;;;5049482;28;20041;-10
2023/01/28 10:50:58;;;;;;;2.00;0.60;;;16.20;63.60;;;;;;5043879;28;20420;-10
2023/01/28 10:53:38;;;;;;;1.92;0.60;;;16.30;63.70;;;;;;5045721;28;20115;-12
2023/01/28 10:56:06;;;;;;;1.90;1.23;;;16.30;63.60;;;;;;5040234;28;20049;-14
2023/01/28 10:58:33;;;;;;;0.65;0.65;;;16.30;63.60;;;;;;5043522;28;20120;-12
2023/01/28 11:01:00;;;;;;;1.88;0.63;;;16.30;63.90;;;;;;5050902;28;20074;-15
2023/01/28 11:03:29;;;;;;;1.95;0.73;;;16.20;63.70;;;;;;5048725;28;20055;-15
2023/01/28 11:05:55;;;;;;;1.02;0.77;;;16.30;63.60;;;;;;5042581;28;20175;-12
2023/01/28 11:08:22;;;;;;;2.92;0.70;;;16.20;63.60;;;;;;5046031;28;20045;-13
2023/01/28 11:10:48;;;;;;;2.78;0.90;;;16.30;63.20;;;;;;5050735;28;20040;-13
2023/01/28 11:13:27;;;;;;;0.75;0.75;;;16.20;62.80;;;;;;5050311;28;20056;-13
2023/01/28 11:16:03;;;;;;;0.82;0.70;;;16.20;62.80;;;;;;5044493;28;20057;-13
2023/01/28 11:18:34;;;;;;;0.60;0.50;;;16.20;62.80;;;;;;5062609;28;20044;-12
2023/01/28 11:21:01;;;;;;;0.65;0.63;;;16.20;62.40;;;;;;5053608;28;20064;-12
2023/01/28 11:23:34;;;;;;;0.50;0.50;;;16.30;61.80;;;;;;5044382;28;20512;-12
2023/01/28 11:26:08;;;;;;;1.15;0.93;;;16.30;61.90;;;;;;5025339;28;20041;-13
2023/01/28 11:28:34;;;;;;;0.70;0.70;;;16.30;61.90;;;;;;5050865;28;20426;-12
2023/01/28 11:31:00;;;;;;;2.63;0.90;;;16.30;62.80;;;;;;5038374;28;20114;-12
2023/01/28 11:33:36;;;;;;;2.15;0.70;;;16.30;63.60;;;;;;5041073;28;20037;-12
2023/01/28 11:36:15;;;;;;;1.85;1.00;;;16.30;63.60;;;;;;5036931;28;20084;-20
2023/01/28 11:38:48;;;;;;;0.68;0.68;;;16.30;63.20;;;;;;5050131;28;20519;-12
2023/01/28 11:41:14;;;;;;;1.58;0.80;;;16.30;63.20;;;;;;5051946;28;20116;-13
2023/01/28 11:43:39;;;;;;;1.98;0.82;;;16.20;62.80;;;;;;5054354;28;20124;-12
2023/01/28 11:46:17;;;;;;;1.60;1.27;;;16.40;63.00;;;;;;5057871;28;20116;-12
2023/01/28 11:48:56;;;;;;;0.80;0.80;;;16.30;63.20;;;;;;5056932;28;20047;-12
2023/01/28 11:51:33;;;;;;;1.70;0.93;;;16.40;62.60;;;;;;5039841;28;20045;-16
2023/01/28 11:54:14;;;;;;;1.25;1.15;;;16.40;62.90;;;;;;5039346;28;20128;-12
2023/01/28 11:56:51;;;;;;;0.90;0.80;;;16.60;62.70;;;;;;5044914;28;20040;-12
2023/01/28 11:59:26;;;;;;;1.17;1.00;;;16.40;63.30;;;;;;5043745;28;20040;-12
2023/01/28 12:02:12;;;;;;;1.67;1.05;;;16.60;63.80;;;;;;5044974;28;20504;-12
2023/01/28 12:05:21;;;;;;;1.58;1.48;;;16.50;64.50;;;;;;5033850;28;20044;-12
2023/01/28 12:08:25;;;;;;;1.80;1.05;;;16.50;64.40;;;;;;5045436;28;20048;-12
2023/01/28 12:12:10;;;;;;;4.32;0.85;;;16.40;64.80;;;;;;5034014;28;20044;-14
2023/01/28 12:14:29;;;;;;;1.23;0.98;;;16.40;65.00;;;;;;5052026;28;20133;-12
2023/01/28 12:17:24;;;;;;;4.18;1.10;;;16.30;65.60;;;;;;5039031;28;20646;-17
2023/01/28 12:20:04;;;;;;;2.25;0.90;;;16.20;65.50;;;;;;5055811;28;20041;-13
2023/01/28 12:22:35;;;;;;;1.63;0.95;;;16.20;65.60;;;;;;5055444;28;20039;-12
2023/01/28 12:25:21;;;;;;;0.80;0.77;;;16.10;65.50;;;;;;5057251;28;20037;-12
2023/01/28 12:28:12;;;;;;;3.10;0.85;;;16.20;66.10;;;;;;5061773;28;20040;-12
2023/01/28 12:31:15;;;;;;;1.85;1.00;;;16.10;65.70;;;;;;5047353;28;20040;-14
2023/01/28 12:33:47;;;;;;;5.75;0.82;;;16.10;65.90;;;;;;5050959;28;20045;-12
2023/01/28 12:36:26;;;;;;;0.93;0.70;;;16.10;65.40;;;;;;5058815;28;20040;-12
2023/01/28 12:39:06;;;;;;;0.77;0.75;;;16.10;65.80;;;;;;5056816;28;20045;-13
2023/01/28 12:42:01;;;;;;;1.40;0.65;;;16.20;65.30;;;;;;5048413;28;20036;-17
2023/01/28 12:44:34;;;;;;;;;;;16.10;66.00;;;;;;5038401;28;20049;-18
2023/01/28 12:47:01;;;;;;;0.50;0.50;;;16.00;66.00;;;;;;5057254;28;19913;-13
2023/01/28 12:49:38;;;;;;;1.27;0.80;;;16.10;66.10;;;;;;4691917;28;9999856;-12
2023/01/28 12:52:35;;;;;;;3.40;0.70;;;16.20;65.30;;;;;;5051578;28;20049;-12
2023/01/28 12:55:15;;;;;;;0.60;0.60;;;16.40;64.50;;;;;;5044878;28;20045;-12
2023/01/28 12:57:41;;;;;;;0.73;0.50;;;16.40;64.10;;;;;;5045648;28;20057;-12
2023/01/28 13:00:35;;;;;;;0.40;0.40;;;16.20;64.30;;;;;;5084046;28;20029;-12
2023/01/28 13:03:07;;;;;;;0.52;0.50;;;16.20;64.40;;;;;;5054510;28;20451;-12
2023/01/28 13:05:36;;;;;;;0.85;0.70;;;16.20;64.40;;;;;;5043174;28;20135;-19
2023/01/28 13:08:03;;;;;;;1.05;0.70;;;16.10;64.40;;;;;;5046176;28;20044;-13
2023/01/28 13:10:40;;;;;;;1.05;0.40;;;16.20;64.40;;;;;;5048757;28;20124;-12
2023/01/28 13:13:06;;;;;;;0.90;0.60;;;16.10;64.20;;;;;;5072935;28;20414;-12
2023/01/28 13:15:31;;;;;;;0.80;0.75;;;16.10;64.20;;;;;;5067018;28;20507;-12
2023/01/28 13:18:01;;;;;;;0.85;0.50;;;16.10;64.20;;;;;;5050144;28;20040;-12
2023/01/28 13:20:48;;;;;;;0.80;0.68;;;16.10;64.10;;;;;;5047547;28;20123;-12
2023/01/28 13:23:39;;;;;;;0.52;0.52;;;16.20;64.70;;;;;;5044353;28;20106;-15
2023/01/28 13:26:20;;;;;;;0.60;0.50;;;16.20;63.80;;;;;;5047098;28;20041;-12
2023/01/28 13:28:46;;;;;;;0.55;0.45;;;16.10;64.00;;;;;;5039605;28;20033;-20
2023/01/28 13:31:16;;;;;;;0.90;0.50;;;16.10;64.80;;;;;;5046539;28;22555;-13